This is the latest recevied weather packets stored in our database for station/object HS1WDC-1. If no packets are shown the sender has not sent any weather packets the latest 10 day(s).
| Time | Temp. | Humidity | Pressure | Rain* | Wind** | Luminosity | Snow |
|---|---|---|---|---|---|---|---|
| 1778380388 | 35.56° C | 56% | 1010 hPa | - | - | 0 W/m² | - |
| 1778379464 | 36.11° C | 55% | 1010 hPa | - | - | 0 W/m² | - |
| 1778378539 | 35.56° C | 57% | 1010 hPa | - | - | 0 W/m² | - |
| 1778377615 | 35° C | 58% | 1010 hPa | - | - | 0 W/m² | - |
| 1778376691 | 35° C | 58% | 1010 hPa | - | - | 0 W/m² | - |
| 1778375766 | 35° C | 58% | 1009 hPa | - | - | 0 W/m² | - |
| 1778374842 | 35° C | 59% | 1009 hPa | - | - | 0 W/m² | - |
| 1778373917 | 34.44° C | 62% | 1009 hPa | - | - | 0 W/m² | - |
| 1778372993 | 33.89° C | 63% | 1009 hPa | - | - | 0 W/m² | - |
| 1778372069 | 33.33° C | 65% | 1009 hPa | - | - | 0 W/m² | - |
| 1778371144 | 33.33° C | 65% | 1008 hPa | - | - | 0 W/m² | - |
| 1778370220 | 32.78° C | 65% | 1008 hPa | - | - | 0 W/m² | - |
| 1778365598 | 32.78° C | 62% | 1008 hPa | - | - | 0 W/m² | - |
| 1778364674 | 32.22° C | 66% | 1008 hPa | - | - | 0 W/m² | - |
| 1778361901 | 32.22° C | 72% | 1007 hPa | - | - | 0 W/m² | - |
| 1778359127 | 33.33° C | 69% | 1007 hPa | - | - | 0 W/m² | - |
| 1778358203 | 32.78° C | 70% | 1007 hPa | - | - | 0 W/m² | - |
| 1778341541 | 33.89° C | 67% | 1009 hPa | - | - | 0 W/m² | - |
| 1778339692 | 35° C | 63% | 1008 hPa | - | - | 0 W/m² | - |
| 1778336919 | 34.44° C | 65% | 1008 hPa | - | - | 0 W/m² | - |
| 1778335070 | 35° C | 61% | 1007 hPa | - | - | 0 W/m² | - |
| 1778333221 | 35.56° C | 59% | 1007 hPa | - | - | 0 W/m² | - |
| 1778332296 | 35.56° C | 57% | 1007 hPa | - | - | 0 W/m² | - |
| 1778329524 | 36.11° C | 57% | 1006 hPa | - | - | 0 W/m² | - |
| 1778328600 | 36.11° C | 57% | 1006 hPa | - | - | 0 W/m² | - |
* Rain since midnight (hover to see other rain measurements)
** Current wind speed in m/s (hover to see current wind gust speed)